Flugplatz Ochsenfurt

Für EDGJ sind keine METAR/TAF Berichte vorhanden.
Es werden die Flugwettermeldungen vom Flugplatz Illesheim Air Base in 31 km Entfernung angezeigt.

Bericht für ETIK

vom 17.07. um 22:56 UTC

kein Wind

Sichtweite 10 km oder mehr

keine Wolken

Temperatur 12.6°C

Taupunkt 11.2°C

Luftfeuchtigkeit 91%

Luftdruck 1014 hPa

ETIK 172256Z AUTO 00000KT 9999 CLR 13/11 A2994 RMK AO2 SLP132 T01260112 402590078

Prognose für ETIK

vom 17.07. um 00:00 UTC

Am 17.07. zwischen 00:00 UTC und 00:00 UTC

variable Windrichtung mit 6 kt

Sichtweite 10 km oder mehr

aufgelockert bewölkt in 4500 ft


Zwischen 00:00 und 00:00 UTC übergehend zu

Wind 10 kt aus 270° in Böen 15 kt

Sichtweite 10 km oder mehr

gering bewölkt in 5000 ft


Zwischen 00:00 und 00:00 UTC übergehend zu

variable Windrichtung mit 6 kt

Sichtweite 10 km oder mehr

aufgelockert bewölkt in 4000 ft

aufgebrochene Bewölkung in 5000 ft

TAF ETIK 172202Z 1722/1904 VRB06KT 9999 SCT045 QNH2990INS BECMG 1812/1813 27010G15KT 9999 FEW050 QNH2988INS BECMG 1819/1820 VRB06KT 9999 SCT040 BKN050 QNH2992INS TX27/1813Z TN10/1803Z
Impressum